Riverton, CT

12:50 AM EST on January 27, 2015 (GMT -0500)
Barnes Municipal | Change Station
CLOSE
Current Station
Airport
Location: Westfield,
Elevation: 269 ft
Nearby Weather Stations

Elev 269 ft 42.16 °N, 72.71 °W | Updated 13 minutes ago

Snow
Snow
18 °F
Feels Like 0 °F
N
24
Wind Variable Wind from North
Gusts 33 mph

Today
High -- | Low -- °F
--% Chance of Precip.
Yesterday
High -- | Low -- °F
Precip. -- in
7:09 AM 5:00 PM
Waxing Crescent, 50% visible
Pressure 29.77 in
Visibility 1.0 miles
Clouds
Windchill 0 °F
Dew Point 12 °F
Humidity 78%
Rainfall 0.00 in
Snow Depth Not available.
UV Not available.
Pollen .10 out of 12
Air Quality Not available.
Flu Activity Not available.
SPECI KBAF 270537Z AUTO 01021G29KT 1SM R20/P6000FT -SN VV015 M08/M11 A2977 RMK AO2 PK WND 36030/0522 P0000 T10781111

More Conditions Fewer Conditions

Pressure 29.77 in
Visibility 1.0 miles
Clouds
Windchill 0 °F
Dew Point 12 °F
Humidity 78%
Rainfall 0.00 in
Snow Depth Not available.
UV Not available.
Pollen .10 out of 12
Air Quality Not available.
Flu Activity Not available.
SPECI KBAF 270537Z AUTO 01021G29KT 1SM R20/P6000FT -SN VV015 M08/M11 A2977 RMK AO2 PK WND 36030/0522 P0000 T10781111

More Conditions Fewer Conditions

10-Day Weather Forecast

Almanac

Astronomy

Jan. 27, 2015 Rise Set
Actual Time
Civil Twilight
Nautical Twilight
Astronomical Twilight
Moon
Length of Visible Light
Length of Day
Tomorrow will be .
, % of the Moon is Illuminated

Today's Extremes

State Highs State Lows

Community

WunderPhotos

Upload Photos

1,790,536 photos uploaded!

WunderBlogs® & News

Nearby

Air Quality

  Air Quality AQ Index Pollutant
Not available.

Snow Depth

Station Depth Elevation

Earthquake Activity

City Distance Mag. Time & Date
Minimum magnitude displayed is 2.5.

Coastal Water Temperatures

Place Temperature

Nearby Weather Stations